sensor_id;sensor_type;location;lat;lon;timestamp;P1;durP1;ratioP1;P2;durP2;ratioP2
52072;SDS011;38074;51.232;6.826;2023-05-01T00:03:25;1.30;;;0.40;;
52072;SDS011;38074;51.232;6.826;2023-05-01T00:10:41;1.23;;;0.40;;
52072;SDS011;38074;51.232;6.826;2023-05-01T00:17:57;1.00;;;0.30;;
52072;SDS011;38074;51.232;6.826;2023-05-01T00:25:12;0.82;;;0.30;;
52072;SDS011;38074;51.232;6.826;2023-05-01T00:32:28;1.00;;;0.40;;
52072;SDS011;38074;51.232;6.826;2023-05-01T00:39:43;0.67;;;0.30;;
52072;SDS011;38074;51.232;6.826;2023-05-01T00:46:59;3.03;;;0.40;;
52072;SDS011;38074;51.232;6.826;2023-05-01T00:54:16;1.05;;;0.40;;
52072;SDS011;38074;51.232;6.826;2023-05-01T01:01:31;0.95;;;0.40;;
52072;SDS011;38074;51.232;6.826;2023-05-01T01:08:51;0.50;;;0.27;;
52072;SDS011;38074;51.232;6.826;2023-05-01T01:16:33;1.70;;;0.60;;
52072;SDS011;38074;51.232;6.826;2023-05-01T01:32:09;0.93;;;0.30;;
52072;SDS011;38074;51.232;6.826;2023-05-01T01:39:49;0.63;;;0.35;;
52072;SDS011;38074;51.232;6.826;2023-05-01T01:47:07;0.55;;;0.40;;
52072;SDS011;38074;51.232;6.826;2023-05-01T01:54:28;0.77;;;0.40;;
52072;SDS011;38074;51.232;6.826;2023-05-01T02:01:46;0.88;;;0.40;;
52072;SDS011;38074;51.232;6.826;2023-05-01T02:09:04;0.80;;;0.47;;
52072;SDS011;38074;51.232;6.826;2023-05-01T02:16:21;0.77;;;0.32;;
52072;SDS011;38074;51.232;6.826;2023-05-01T02:23:39;2.53;;;0.40;;
52072;SDS011;38074;51.232;6.826;2023-05-01T02:30:55;0.68;;;0.32;;
52072;SDS011;38074;51.232;6.826;2023-05-01T02:38:12;1.27;;;0.40;;
52072;SDS011;38074;51.232;6.826;2023-05-01T02:45:29;1.45;;;0.50;;
52072;SDS011;38074;51.232;6.826;2023-05-01T02:52:46;1.20;;;0.40;;
52072;SDS011;38074;51.232;6.826;2023-05-01T03:00:02;1.90;;;0.32;;
52072;SDS011;38074;51.232;6.826;2023-05-01T03:07:18;1.05;;;0.38;;
52072;SDS011;38074;51.232;6.826;2023-05-01T03:14:34;0.50;;;0.20;;
52072;SDS011;38074;51.232;6.826;2023-05-01T03:21:49;0.67;;;0.40;;
52072;SDS011;38074;51.232;6.826;2023-05-01T03:29:05;0.82;;;0.30;;
52072;SDS011;38074;51.232;6.826;2023-05-01T03:36:20;0.80;;;0.40;;
52072;SDS011;38074;51.232;6.826;2023-05-01T03:43:36;1.27;;;0.52;;
52072;SDS011;38074;51.232;6.826;2023-05-01T03:50:51;1.00;;;0.40;;
52072;SDS011;38074;51.232;6.826;2023-05-01T03:58:07;0.80;;;0.30;;
52072;SDS011;38074;51.232;6.826;2023-05-01T04:05:24;0.98;;;0.30;;
52072;SDS011;38074;51.232;6.826;2023-05-01T04:12:40;3.70;;;0.40;;
52072;SDS011;38074;51.232;6.826;2023-05-01T04:19:55;1.13;;;0.43;;
52072;SDS011;38074;51.232;6.826;2023-05-01T04:27:11;1.23;;;0.30;;
52072;SDS011;38074;51.232;6.826;2023-05-01T04:34:26;0.40;;;0.30;;
52072;SDS011;38074;51.232;6.826;2023-05-01T04:41:43;1.70;;;0.47;;
52072;SDS011;38074;51.232;6.826;2023-05-01T04:48:59;0.50;;;0.30;;
52072;SDS011;38074;51.232;6.826;2023-05-01T04:56:14;0.57;;;0.20;;
52072;SDS011;38074;51.232;6.826;2023-05-01T05:03:30;0.53;;;0.20;;
52072;SDS011;38074;51.232;6.826;2023-05-01T05:10:45;1.47;;;0.30;;
52072;SDS011;38074;51.232;6.826;2023-05-01T05:18:01;0.50;;;0.20;;
52072;SDS011;38074;51.232;6.826;2023-05-01T05:25:17;0.60;;;0.30;;
52072;SDS011;38074;51.232;6.826;2023-05-01T05:32:32;0.75;;;0.30;;
52072;SDS011;38074;51.232;6.826;2023-05-01T05:39:48;0.65;;;0.30;;
52072;SDS011;38074;51.232;6.826;2023-05-01T05:47:04;0.50;;;0.20;;
52072;SDS011;38074;51.232;6.826;2023-05-01T05:54:20;0.57;;;0.30;;
52072;SDS011;38074;51.232;6.826;2023-05-01T06:01:35;0.47;;;0.20;;
52072;SDS011;38074;51.232;6.826;2023-05-01T06:08:51;0.95;;;0.30;;
52072;SDS011;38074;51.232;6.826;2023-05-01T06:16:07;2.03;;;0.30;;
52072;SDS011;38074;51.232;6.826;2023-05-01T06:23:22;2.80;;;0.30;;
52072;SDS011;38074;51.232;6.826;2023-05-01T06:30:38;2.93;;;0.50;;
52072;SDS011;38074;51.232;6.826;2023-05-01T06:37:53;3.03;;;0.73;;
52072;SDS011;38074;51.232;6.826;2023-05-01T06:45:09;1.10;;;0.50;;
52072;SDS011;38074;51.232;6.826;2023-05-01T06:52:25;5.17;;;2.33;;
52072;SDS011;38074;51.232;6.826;2023-05-01T06:59:41;6.47;;;5.40;;
52072;SDS011;38074;51.232;6.826;2023-05-01T07:06:56;4.90;;;4.40;;
52072;SDS011;38074;51.232;6.826;2023-05-01T07:14:12;5.43;;;3.13;;
52072;SDS011;38074;51.232;6.826;2023-05-01T07:21:27;3.13;;;2.53;;
52072;SDS011;38074;51.232;6.826;2023-05-01T07:28:43;5.80;;;1.57;;
52072;SDS011;38074;51.232;6.826;2023-05-01T07:35:58;5.70;;;1.60;;
52072;SDS011;38074;51.232;6.826;2023-05-01T07:43:14;4.97;;;1.20;;
52072;SDS011;38074;51.232;6.826;2023-05-01T07:50:29;2.90;;;0.90;;
52072;SDS011;38074;51.232;6.826;2023-05-01T07:57:45;3.15;;;0.50;;
52072;SDS011;38074;51.232;6.826;2023-05-01T08:05:01;2.93;;;0.70;;
52072;SDS011;38074;51.232;6.826;2023-05-01T08:12:18;3.35;;;0.60;;
52072;SDS011;38074;51.232;6.826;2023-05-01T08:19:33;1.57;;;0.67;;
52072;SDS011;38074;51.232;6.826;2023-05-01T08:26:49;3.03;;;0.40;;
52072;SDS011;38074;51.232;6.826;2023-05-01T08:34:05;3.90;;;0.50;;
52072;SDS011;38074;51.232;6.826;2023-05-01T08:41:21;3.27;;;0.50;;
52072;SDS011;38074;51.232;6.826;2023-05-01T08:48:38;5.13;;;1.45;;
52072;SDS011;38074;51.232;6.826;2023-05-01T08:55:56;5.57;;;1.52;;
52072;SDS011;38074;51.232;6.826;2023-05-01T09:03:14;9.10;;;2.10;;
52072;SDS011;38074;51.232;6.826;2023-05-01T09:10:31;7.82;;;2.08;;
52072;SDS011;38074;51.232;6.826;2023-05-01T09:17:47;6.30;;;1.97;;
52072;SDS011;38074;51.232;6.826;2023-05-01T09:25:04;9.80;;;2.57;;
52072;SDS011;38074;51.232;6.826;2023-05-01T09:32:21;9.75;;;1.88;;
52072;SDS011;38074;51.232;6.826;2023-05-01T09:39:39;6.13;;;1.67;;
52072;SDS011;38074;51.232;6.826;2023-05-01T09:46:54;7.85;;;1.40;;
52072;SDS011;38074;51.232;6.826;2023-05-01T09:54:17;7.22;;;1.50;;
52072;SDS011;38074;51.232;6.826;2023-05-01T10:01:38;6.18;;;1.42;;
52072;SDS011;38074;51.232;6.826;2023-05-01T10:08:55;5.95;;;1.50;;
52072;SDS011;38074;51.232;6.826;2023-05-01T10:16:29;6.07;;;1.30;;
52072;SDS011;38074;51.232;6.826;2023-05-01T10:23:44;7.15;;;1.35;;
52072;SDS011;38074;51.232;6.826;2023-05-01T10:31:00;3.90;;;1.03;;
52072;SDS011;38074;51.232;6.826;2023-05-01T10:38:24;5.47;;;1.30;;
52072;SDS011;38074;51.232;6.826;2023-05-01T10:45:45;3.72;;;1.00;;
52072;SDS011;38074;51.232;6.826;2023-05-01T11:00:26;4.40;;;1.13;;
52072;SDS011;38074;51.232;6.826;2023-05-01T11:07:42;3.37;;;0.97;;
52072;SDS011;38074;51.232;6.826;2023-05-01T11:22:17;1.63;;;0.70;;
52072;SDS011;38074;51.232;6.826;2023-05-01T11:29:33;2.92;;;0.90;;
52072;SDS011;38074;51.232;6.826;2023-05-01T11:36:51;3.22;;;0.93;;
52072;SDS011;38074;51.232;6.826;2023-05-01T11:44:06;2.88;;;0.77;;
52072;SDS011;38074;51.232;6.826;2023-05-01T11:51:25;1.80;;;0.85;;
52072;SDS011;38074;51.232;6.826;2023-05-01T11:58:42;1.80;;;0.50;;
52072;SDS011;38074;51.232;6.826;2023-05-01T12:05:57;1.77;;;0.50;;
52072;SDS011;38074;51.232;6.826;2023-05-01T12:13:13;2.17;;;0.57;;
52072;SDS011;38074;51.232;6.826;2023-05-01T12:20:33;2.27;;;0.50;;
52072;SDS011;38074;51.232;6.826;2023-05-01T12:27:49;1.77;;;0.50;;
52072;SDS011;38074;51.232;6.826;2023-05-01T12:35:14;1.43;;;0.50;;
52072;SDS011;38074;51.232;6.826;2023-05-01T12:42:30;1.98;;;0.60;;
52072;SDS011;38074;51.232;6.826;2023-05-01T12:49:46;1.40;;;0.63;;
52072;SDS011;38074;51.232;6.826;2023-05-01T12:57:08;1.75;;;0.60;;
52072;SDS011;38074;51.232;6.826;2023-05-01T13:04:28;1.33;;;0.50;;
52072;SDS011;38074;51.232;6.826;2023-05-01T13:11:54;1.42;;;0.52;;
52072;SDS011;38074;51.232;6.826;2023-05-01T13:19:24;1.17;;;0.40;;
52072;SDS011;38074;51.232;6.826;2023-05-01T13:26:43;1.10;;;0.45;;
52072;SDS011;38074;51.232;6.826;2023-05-01T13:33:59;0.73;;;0.40;;
52072;SDS011;38074;51.232;6.826;2023-05-01T13:41:15;0.80;;;0.47;;
52072;SDS011;38074;51.232;6.826;2023-05-01T13:48:33;0.50;;;0.35;;
52072;SDS011;38074;51.232;6.826;2023-05-01T13:55:49;1.03;;;0.40;;
52072;SDS011;38074;51.232;6.826;2023-05-01T14:03:05;3.43;;;0.40;;
52072;SDS011;38074;51.232;6.826;2023-05-01T14:10:25;3.15;;;0.70;;
52072;SDS011;38074;51.232;6.826;2023-05-01T14:17:42;2.67;;;0.45;;
52072;SDS011;38074;51.232;6.826;2023-05-01T14:24:58;4.32;;;0.77;;
52072;SDS011;38074;51.232;6.826;2023-05-01T14:32:14;1.52;;;0.60;;
52072;SDS011;38074;51.232;6.826;2023-05-01T14:39:31;1.52;;;0.40;;
52072;SDS011;38074;51.232;6.826;2023-05-01T14:46:47;2.13;;;0.40;;
52072;SDS011;38074;51.232;6.826;2023-05-01T14:54:07;3.42;;;0.50;;
52072;SDS011;38074;51.232;6.826;2023-05-01T15:01:23;1.38;;;0.40;;
52072;SDS011;38074;51.232;6.826;2023-05-01T15:08:39;3.45;;;0.80;;
52072;SDS011;38074;51.232;6.826;2023-05-01T15:15:55;2.90;;;0.93;;
52072;SDS011;38074;51.232;6.826;2023-05-01T15:23:11;3.55;;;1.10;;
52072;SDS011;38074;51.232;6.826;2023-05-01T15:30:26;2.53;;;1.77;;
52072;SDS011;38074;51.232;6.826;2023-05-01T15:37:42;2.37;;;1.60;;
52072;SDS011;38074;51.232;6.826;2023-05-01T15:44:57;4.30;;;1.23;;
52072;SDS011;38074;51.232;6.826;2023-05-01T15:52:13;3.30;;;1.30;;
52072;SDS011;38074;51.232;6.826;2023-05-01T15:59:29;2.33;;;1.00;;
52072;SDS011;38074;51.232;6.826;2023-05-01T16:06:44;2.30;;;0.95;;
52072;SDS011;38074;51.232;6.826;2023-05-01T16:14:00;1.80;;;0.80;;
52072;SDS011;38074;51.232;6.826;2023-05-01T16:21:16;2.50;;;0.65;;
52072;SDS011;38074;51.232;6.826;2023-05-01T16:28:34;4.70;;;1.07;;
52072;SDS011;38074;51.232;6.826;2023-05-01T16:35:50;2.70;;;1.10;;
52072;SDS011;38074;51.232;6.826;2023-05-01T16:43:06;7.72;;;1.33;;
52072;SDS011;38074;51.232;6.826;2023-05-01T16:50:22;3.13;;;1.00;;
52072;SDS011;38074;51.232;6.826;2023-05-01T16:57:37;4.07;;;1.02;;
52072;SDS011;38074;51.232;6.826;2023-05-01T17:04:53;3.08;;;0.77;;
52072;SDS011;38074;51.232;6.826;2023-05-01T17:12:09;9.00;;;3.23;;
52072;SDS011;38074;51.232;6.826;2023-05-01T17:19:24;30.47;;;12.20;;
52072;SDS011;38074;51.232;6.826;2023-05-01T17:26:40;51.05;;;22.17;;
52072;SDS011;38074;51.232;6.826;2023-05-01T17:33:55;58.90;;;25.77;;
52072;SDS011;38074;51.232;6.826;2023-05-01T17:41:11;64.13;;;29.43;;
52072;SDS011;38074;51.232;6.826;2023-05-01T17:48:26;76.20;;;32.15;;
52072;SDS011;38074;51.232;6.826;2023-05-01T17:55:42;65.33;;;30.17;;
52072;SDS011;38074;51.232;6.826;2023-05-01T18:02:58;67.40;;;28.20;;
52072;SDS011;38074;51.232;6.826;2023-05-01T18:10:13;59.85;;;29.10;;
52072;SDS011;38074;51.232;6.826;2023-05-01T18:17:30;65.73;;;29.10;;
52072;SDS011;38074;51.232;6.826;2023-05-01T18:24:45;47.03;;;19.37;;
52072;SDS011;38074;51.232;6.826;2023-05-01T18:32:01;37.90;;;18.75;;
52072;SDS011;38074;51.232;6.826;2023-05-01T18:39:20;42.47;;;17.88;;
52072;SDS011;38074;51.232;6.826;2023-05-01T18:46:36;38.50;;;18.02;;
52072;SDS011;38074;51.232;6.826;2023-05-01T18:53:51;38.43;;;17.90;;
52072;SDS011;38074;51.232;6.826;2023-05-01T19:01:07;36.83;;;16.65;;
52072;SDS011;38074;51.232;6.826;2023-05-01T19:08:23;41.20;;;17.00;;
52072;SDS011;38074;51.232;6.826;2023-05-01T19:15:38;36.73;;;16.13;;
52072;SDS011;38074;51.232;6.826;2023-05-01T19:22:54;33.57;;;15.10;;
52072;SDS011;38074;51.232;6.826;2023-05-01T19:30:10;30.37;;;14.07;;
52072;SDS011;38074;51.232;6.826;2023-05-01T19:37:26;28.07;;;12.73;;
52072;SDS011;38074;51.232;6.826;2023-05-01T19:44:42;27.98;;;12.57;;
52072;SDS011;38074;51.232;6.826;2023-05-01T19:51:57;21.97;;;11.00;;
52072;SDS011;38074;51.232;6.826;2023-05-01T19:59:13;22.70;;;10.50;;
52072;SDS011;38074;51.232;6.826;2023-05-01T20:06:29;23.90;;;10.50;;
52072;SDS011;38074;51.232;6.826;2023-05-01T20:13:45;23.73;;;9.05;;
52072;SDS011;38074;51.232;6.826;2023-05-01T20:21:00;20.92;;;9.50;;
52072;SDS011;38074;51.232;6.826;2023-05-01T20:28:16;16.97;;;8.77;;
52072;SDS011;38074;51.232;6.826;2023-05-01T20:35:32;17.25;;;8.35;;
52072;SDS011;38074;51.232;6.826;2023-05-01T20:42:48;20.20;;;8.73;;
52072;SDS011;38074;51.232;6.826;2023-05-01T20:50:03;17.07;;;8.37;;
52072;SDS011;38074;51.232;6.826;2023-05-01T20:57:19;19.50;;;8.10;;
52072;SDS011;38074;51.232;6.826;2023-05-01T21:04:35;18.55;;;8.90;;
52072;SDS011;38074;51.232;6.826;2023-05-01T21:11:51;17.95;;;8.48;;
52072;SDS011;38074;51.232;6.826;2023-05-01T21:19:09;15.17;;;7.77;;
52072;SDS011;38074;51.232;6.826;2023-05-01T21:26:25;15.80;;;7.20;;
52072;SDS011;38074;51.232;6.826;2023-05-01T21:33:43;14.05;;;7.25;;
52072;SDS011;38074;51.232;6.826;2023-05-01T21:40:59;11.97;;;6.03;;
52072;SDS011;38074;51.232;6.826;2023-05-01T21:48:15;11.27;;;5.47;;
52072;SDS011;38074;51.232;6.826;2023-05-01T21:55:33;12.88;;;5.72;;
52072;SDS011;38074;51.232;6.826;2023-05-01T22:02:49;11.65;;;5.32;;
52072;SDS011;38074;51.232;6.826;2023-05-01T22:10:09;11.73;;;5.15;;
52072;SDS011;38074;51.232;6.826;2023-05-01T22:17:25;10.20;;;5.22;;
52072;SDS011;38074;51.232;6.826;2023-05-01T22:24:41;10.70;;;4.60;;
52072;SDS011;38074;51.232;6.826;2023-05-01T22:31:56;8.67;;;4.43;;
52072;SDS011;38074;51.232;6.826;2023-05-01T22:39:12;9.40;;;4.27;;
52072;SDS011;38074;51.232;6.826;2023-05-01T22:46:27;7.63;;;4.90;;
52072;SDS011;38074;51.232;6.826;2023-05-01T22:53:43;10.37;;;4.33;;
52072;SDS011;38074;51.232;6.826;2023-05-01T23:00:59;6.15;;;3.60;;
52072;SDS011;38074;51.232;6.826;2023-05-01T23:08:14;7.20;;;4.10;;
52072;SDS011;38074;51.232;6.826;2023-05-01T23:15:30;6.93;;;3.73;;
52072;SDS011;38074;51.232;6.826;2023-05-01T23:22:46;8.20;;;3.87;;
52072;SDS011;38074;51.232;6.826;2023-05-01T23:30:02;8.52;;;4.22;;
52072;SDS011;38074;51.232;6.826;2023-05-01T23:37:19;6.50;;;3.45;;
52072;SDS011;38074;51.232;6.826;2023-05-01T23:44:35;6.55;;;3.40;;
52072;SDS011;38074;51.232;6.826;2023-05-01T23:51:51;5.93;;;3.03;;
52072;SDS011;38074;51.232;6.826;2023-05-01T23:59:07;5.55;;;3.05;;
